South Paterson, New Jersey
Current Conditions -  °F | °C
As of 9:51 PM on Saturday 25 Oct 2014 (Local Time) from KTEB Reporting Station
Clear Clear  
Wind Chill: 61°   Ceiling: Unl
Heat Index: 61°   Visibility: 10mi
Dew Point: 43°   Wind: 14mph
Humidity: 52%   Direction: 220°SW
Pressure: 29.59"   Gusts: NA
Location:  40.8979°N, 74.1545°W
Report Text: KTEB 260151Z 22012KT 10SM CLR 16/06 A2959 RMK AO2 SLP020 T01610061
Loading
Personal Weather Stations






























Interactive Weather Map New forecast layout! Learn more

10-Day Weather Forecast

Advertisements
Track Severe Weather on mobile